Time;durP1;ratioP1;P1;durP2;ratioP2;P2;SDS_P1;SDS_P2;PMS_P1;PMS_P2;Temp;Humidity;BMP_temperature;BMP_pressure;BME280_temperature;BME280_humidity;BME280_pressure;Samples;Min_cycle;Max_cycle;Signal;HPM_P1;HPM_P2
2023/08/07 00:00:59;;;;;;;7.93;1.98;;;;;;;;;;5003998;28;20061;-67
2023/08/07 00:03:33;;;;;;;7.22;2.13;;;;;;;;;;5003022;28;20487;-67
2023/08/07 00:05:59;;;;;;;7.57;2.10;;;;;;;;;;5004441;28;20096;-67
2023/08/07 00:08:25;;;;;;;9.30;2.20;;;;;;;;;;5003992;28;20057;-67
2023/08/07 00:10:51;;;;;;;9.57;2.15;;;;;;;;;;5007728;28;20064;-66
2023/08/07 00:13:17;;;;;;;5.07;1.90;;;;;;;;;;5003322;28;20081;-66
2023/08/07 00:15:42;;;;;;;6.18;1.60;;;;;;;;;;5003327;28;20172;-68
2023/08/07 00:18:08;;;;;;;9.60;2.00;;;;;;;;;;5002789;28;20042;-67
2023/08/07 00:20:34;;;;;;;9.07;1.90;;;;;;;;;;5005670;28;20049;-67
2023/08/07 00:23:00;;;;;;;10.30;1.60;;;;;;;;;;5003503;28;20783;-67
2023/08/07 00:25:27;;;;;;;4.72;1.80;;;;;;;;;;5003616;28;22010;-67
2023/08/07 00:27:53;;;;;;;9.32;2.15;;;;;;;;;;5002278;28;20068;-67
2023/08/07 00:30:19;;;;;;;4.75;1.65;;;;;;;;;;5005726;28;20049;-66
2023/08/07 00:32:45;;;;;;;4.15;2.00;;;;;;;;;;5002503;28;20054;-67
2023/08/07 00:35:11;;;;;;;9.70;2.13;;;;;;;;;;5006579;28;20049;-67
2023/08/07 00:37:37;;;;;;;6.15;2.10;;;;;;;;;;5002689;28;20057;-66
2023/08/07 00:40:03;;;;;;;11.57;2.17;;;;;;;;;;5004816;28;20422;-67
2023/08/07 00:42:29;;;;;;;5.95;2.00;;;;;;;;;;5004377;28;20087;-67
2023/08/07 00:44:55;;;;;;;7.13;2.15;;;;;;;;;;5004203;28;20644;-66
2023/08/07 00:47:21;;;;;;;7.47;2.10;;;;;;;;;;5003125;28;20412;-67
2023/08/07 00:49:48;;;;;;;4.13;1.65;;;;;;;;;;5002783;28;20056;-66
2023/08/07 00:52:14;;;;;;;7.30;2.25;;;;;;;;;;5002790;28;20574;-67
2023/08/07 00:54:40;;;;;;;5.43;1.65;;;;;;;;;;5003783;28;20387;-68
2023/08/07 00:57:16;;;;;;;9.95;1.83;;;;;;;;;;5005339;28;20419;-67
2023/08/07 00:59:42;;;;;;;7.82;2.03;;;;;;;;;;5003102;28;20412;-66
2023/08/07 01:02:09;;;;;;;8.90;2.17;;;;;;;;;;5002125;28;20065;-67
2023/08/07 01:04:35;;;;;;;5.88;2.03;;;;;;;;;;5003108;28;20406;-66
2023/08/07 01:07:01;;;;;;;7.70;2.20;;;;;;;;;;5000970;28;20392;-68
2023/08/07 01:09:27;;;;;;;6.47;1.90;;;;;;;;;;5002394;28;21050;-67
2023/08/07 01:12:03;;;;;;;7.07;2.30;;;;;;;;;;5004182;28;20408;-68
2023/08/07 01:14:32;;;;;;;7.72;2.17;;;;;;;;;;4998835;28;20098;-67
2023/08/07 01:17:09;;;;;;;5.85;2.10;;;;;;;;;;5001253;28;20063;-65
2023/08/07 01:19:36;;;;;;;6.88;2.10;;;;;;;;;;5004215;28;20068;-68
2023/08/07 01:22:16;;;;;;;7.32;2.00;;;;;;;;;;4998240;28;20764;-67
2023/08/07 01:24:44;;;;;;;10.52;2.33;;;;;;;;;;5004511;28;20754;-68
2023/08/07 01:27:19;;;;;;;6.18;2.20;;;;;;;;;;5000884;28;20488;-66
2023/08/07 01:29:54;;;;;;;7.78;2.25;;;;;;;;;;5001655;28;20108;-67
2023/08/07 01:32:59;;;;;;;7.25;1.92;;;;;;;;;;5002146;28;20507;-67
2023/08/07 01:35:29;;;;;;;7.70;2.33;;;;;;;;;;5001830;28;20050;-67
2023/08/07 01:37:57;;;;;;;10.32;2.50;;;;;;;;;;5002736;28;20145;-66
2023/08/07 01:40:23;;;;;;;9.13;2.42;;;;;;;;;;5002416;28;20064;-68
2023/08/07 01:42:49;;;;;;;7.57;2.67;;;;;;;;;;5003842;28;20068;-66
2023/08/07 01:45:35;;;;;;;8.43;2.50;;;;;;;;;;5003546;28;20055;-66
2023/08/07 01:48:02;;;;;;;9.40;2.00;;;;;;;;;;5001769;28;20080;-66
2023/08/07 01:50:27;;;;;;;7.90;2.15;;;;;;;;;;5004773;28;22009;-67
2023/08/07 01:52:54;;;;;;;8.60;2.30;;;;;;;;;;5005129;28;20053;-66
2023/08/07 01:55:20;;;;;;;8.70;2.35;;;;;;;;;;5004065;28;20506;-68
2023/08/07 01:57:47;;;;;;;8.60;2.30;;;;;;;;;;5002050;28;20044;-68
2023/08/07 02:00:13;;;;;;;6.75;2.00;;;;;;;;;;5000935;28;20058;-68
2023/08/07 02:02:39;;;;;;;8.85;2.38;;;;;;;;;;5000889;28;20057;-67
2023/08/07 02:05:06;;;;;;;8.13;2.50;;;;;;;;;;5002558;28;20107;-66
2023/08/07 02:07:32;;;;;;;9.45;2.65;;;;;;;;;;5000400;28;20056;-68
2023/08/07 02:09:58;;;;;;;10.93;1.98;;;;;;;;;;5004335;28;20050;-65
2023/08/07 02:12:25;;;;;;;8.88;2.22;;;;;;;;;;5001155;28;20057;-66
2023/08/07 02:14:51;;;;;;;9.13;2.38;;;;;;;;;;5001832;28;20072;-68
2023/08/07 02:17:17;;;;;;;7.90;2.38;;;;;;;;;;5001886;28;20053;-66
2023/08/07 02:19:43;;;;;;;9.80;1.95;;;;;;;;;;5005265;28;20050;-67
2023/08/07 02:22:09;;;;;;;8.35;2.33;;;;;;;;;;5000090;28;20045;-66
2023/08/07 02:24:34;;;;;;;7.85;2.20;;;;;;;;;;5003877;28;20046;-67
2023/08/07 02:27:00;;;;;;;7.43;2.08;;;;;;;;;;5001468;28;20605;-67
2023/08/07 02:29:26;;;;;;;5.88;2.17;;;;;;;;;;5005498;28;20049;-66
2023/08/07 02:31:52;;;;;;;8.32;1.88;;;;;;;;;;5005025;28;20057;-67
2023/08/07 02:34:18;;;;;;;8.95;2.60;;;;;;;;;;5007149;28;20065;-69
2023/08/07 02:36:44;;;;;;;8.90;2.10;;;;;;;;;;5004416;28;20136;-67
2023/08/07 02:39:10;;;;;;;5.03;1.63;;;;;;;;;;5006735;28;20203;-66
2023/08/07 02:41:36;;;;;;;8.23;2.20;;;;;;;;;;5005366;28;20215;-67
2023/08/07 02:44:02;;;;;;;7.65;2.10;;;;;;;;;;5005745;28;20107;-67
2023/08/07 02:46:28;;;;;;;7.53;2.00;;;;;;;;;;5004139;28;20419;-65
2023/08/07 02:48:54;;;;;;;8.57;2.03;;;;;;;;;;5006757;28;20052;-66
2023/08/07 02:51:20;;;;;;;8.15;2.13;;;;;;;;;;5004426;28;20583;-67
2023/08/07 02:53:45;;;;;;;10.35;2.13;;;;;;;;;;5007188;28;20487;-66
2023/08/07 02:56:13;;;;;;;8.38;2.10;;;;;;;;;;5005610;28;20054;-66
2023/08/07 02:58:38;;;;;;;17.23;2.50;;;;;;;;;;5004184;28;20057;-66
2023/08/07 03:01:08;;;;;;;6.28;2.03;;;;;;;;;;5005837;28;20158;-66
2023/08/07 03:03:34;;;;;;;10.43;2.10;;;;;;;;;;5005270;28;20089;-66
2023/08/07 03:06:00;;;;;;;10.82;2.25;;;;;;;;;;5007226;28;20416;-66
2023/08/07 03:08:26;;;;;;;6.18;2.00;;;;;;;;;;5003875;28;20529;-66
2023/08/07 03:10:55;;;;;;;7.88;1.90;;;;;;;;;;5011431;28;20041;-66
2023/08/07 03:13:21;;;;;;;9.98;2.10;;;;;;;;;;5002540;28;20038;-67
2023/08/07 03:15:49;;;;;;;6.85;2.30;;;;;;;;;;5005494;28;20046;-66
2023/08/07 03:18:16;;;;;;;6.85;2.00;;;;;;;;;;5004665;28;20041;-67
2023/08/07 03:20:43;;;;;;;5.78;1.88;;;;;;;;;;5005138;28;20054;-67
2023/08/07 03:23:09;;;;;;;9.48;1.92;;;;;;;;;;5004655;28;20495;-66
2023/08/07 03:25:36;;;;;;;6.85;2.22;;;;;;;;;;5005484;28;20068;-67
2023/08/07 03:28:01;;;;;;;6.82;2.10;;;;;;;;;;5003778;28;20050;-68
2023/08/07 03:30:27;;;;;;;8.32;2.03;;;;;;;;;;5003539;28;20060;-68
2023/08/07 03:32:53;;;;;;;9.57;2.08;;;;;;;;;;5004098;28;20057;-67
2023/08/07 03:35:19;;;;;;;6.47;2.10;;;;;;;;;;5005889;28;20302;-66
2023/08/07 03:37:45;;;;;;;12.02;2.30;;;;;;;;;;5003968;28;20571;-69
2023/08/07 03:40:11;;;;;;;4.97;1.75;;;;;;;;;;5005303;28;20065;-68
2023/08/07 03:42:37;;;;;;;12.15;2.60;;;;;;;;;;5001591;28;20064;-67
2023/08/07 03:45:03;;;;;;;11.32;1.90;;;;;;;;;;5005552;28;20058;-66
2023/08/07 03:47:29;;;;;;;6.43;1.92;;;;;;;;;;5004671;28;20128;-65
2023/08/07 03:49:55;;;;;;;6.85;1.70;;;;;;;;;;5005078;28;21241;-66
2023/08/07 03:52:21;;;;;;;6.97;1.85;;;;;;;;;;5002734;28;20581;-67
2023/08/07 03:54:47;;;;;;;6.75;2.00;;;;;;;;;;5003619;28;20049;-64
2023/08/07 03:57:12;;;;;;;7.68;2.50;;;;;;;;;;5003885;28;20064;-65
2023/08/07 03:59:39;;;;;;;7.53;1.77;;;;;;;;;;5006742;28;20061;-64
2023/08/07 04:02:04;;;;;;;8.15;1.95;;;;;;;;;;5001912;28;20092;-65
2023/08/07 04:04:31;;;;;;;6.82;2.15;;;;;;;;;;5006277;28;20049;-64
2023/08/07 04:06:56;;;;;;;6.88;2.03;;;;;;;;;;5002250;28;20780;-65
2023/08/07 04:09:24;;;;;;;8.15;2.13;;;;;;;;;;5006281;28;20115;-64
2023/08/07 04:11:49;;;;;;;6.78;2.15;;;;;;;;;;5009531;28;20060;-65
2023/08/07 04:14:15;;;;;;;10.10;1.88;;;;;;;;;;5003895;28;20053;-66
2023/08/07 04:16:41;;;;;;;8.18;1.70;;;;;;;;;;5002873;28;20135;-64
2023/08/07 04:19:07;;;;;;;8.23;2.13;;;;;;;;;;5003621;28;20458;-65
2023/08/07 04:21:33;;;;;;;5.28;1.70;;;;;;;;;;5004454;28;20380;-65
2023/08/07 04:24:07;;;;;;;8.77;1.67;;;;;;;;;;5004146;28;20590;-66
2023/08/07 04:26:34;;;;;;;6.00;1.90;;;;;;;;;;5002157;28;20102;-64
2023/08/07 04:29:00;;;;;;;4.95;1.90;;;;;;;;;;4999630;28;20069;-65
2023/08/07 04:31:26;;;;;;;7.70;1.88;;;;;;;;;;5001658;28;20045;-66
2023/08/07 04:33:52;;;;;;;9.05;2.17;;;;;;;;;;5005239;28;20132;-66
2023/08/07 04:36:17;;;;;;;7.68;1.92;;;;;;;;;;5004242;28;20055;-63
2023/08/07 04:38:43;;;;;;;7.75;2.10;;;;;;;;;;5002485;28;20064;-65
2023/08/07 04:41:09;;;;;;;7.82;1.98;;;;;;;;;;5005228;28;20053;-64
2023/08/07 04:43:35;;;;;;;17.42;2.20;;;;;;;;;;5007569;28;20522;-66
2023/08/07 04:46:01;;;;;;;10.63;1.90;;;;;;;;;;5004014;28;20050;-65
2023/08/07 04:48:27;;;;;;;7.82;2.03;;;;;;;;;;5003388;28;20049;-64
2023/08/07 04:50:54;;;;;;;7.30;2.00;;;;;;;;;;5002147;28;20632;-64
2023/08/07 04:53:20;;;;;;;8.95;2.03;;;;;;;;;;5001859;28;20529;-67
2023/08/07 04:55:46;;;;;;;10.85;1.92;;;;;;;;;;5003916;28;20057;-65
2023/08/07 04:58:12;;;;;;;6.07;2.10;;;;;;;;;;5004088;28;20068;-65
2023/08/07 05:00:39;;;;;;;7.25;1.85;;;;;;;;;;5004043;28;20049;-64
2023/08/07 05:03:05;;;;;;;6.28;2.10;;;;;;;;;;5002228;28;20063;-66
2023/08/07 05:05:31;;;;;;;6.53;2.40;;;;;;;;;;5006199;28;20049;-65
2023/08/07 05:07:58;;;;;;;5.57;1.90;;;;;;;;;;5002368;28;20072;-67
2023/08/07 05:10:24;;;;;;;8.07;2.10;;;;;;;;;;5008779;28;20060;-67
2023/08/07 05:12:55;;;;;;;12.40;2.22;;;;;;;;;;5002769;28;20377;-66
2023/08/07 05:15:25;;;;;;;10.68;2.10;;;;;;;;;;5003484;28;20061;-66
2023/08/07 05:17:52;;;;;;;13.05;2.10;;;;;;;;;;5001673;28;21011;-65
2023/08/07 05:20:18;;;;;;;8.73;2.70;;;;;;;;;;4999980;28;20044;-65
2023/08/07 05:22:44;;;;;;;7.60;2.20;;;;;;;;;;5002085;28;20053;-66
2023/08/07 05:25:15;;;;;;;8.95;2.22;;;;;;;;;;5002352;28;20495;-65
2023/08/07 05:27:42;;;;;;;6.47;1.90;;;;;;;;;;5014837;28;20115;-65
2023/08/07 05:30:08;;;;;;;8.63;1.90;;;;;;;;;;5003675;28;21174;-65
2023/08/07 05:32:37;;;;;;;10.15;1.80;;;;;;;;;;5004855;28;20057;-68
2023/08/07 05:35:07;;;;;;;9.55;2.55;;;;;;;;;;5002356;28;20056;-64
2023/08/07 05:37:34;;;;;;;6.50;2.30;;;;;;;;;;5003980;28;20061;-65
2023/08/07 05:40:01;;;;;;;10.20;1.90;;;;;;;;;;5004214;28;20055;-65
2023/08/07 05:42:27;;;;;;;9.48;1.98;;;;;;;;;;5002162;28;20053;-65
2023/08/07 05:44:53;;;;;;;12.20;2.22;;;;;;;;;;5003420;28;20467;-64
2023/08/07 05:47:19;;;;;;;9.02;2.63;;;;;;;;;;5002791;28;20407;-66
2023/08/07 05:49:45;;;;;;;9.98;2.03;;;;;;;;;;5002808;28;20045;-66
2023/08/07 05:52:11;;;;;;;10.80;2.28;;;;;;;;;;5005759;28;20479;-65
2023/08/07 05:54:37;;;;;;;6.53;1.85;;;;;;;;;;5003131;28;20049;-66
2023/08/07 05:57:03;;;;;;;4.55;1.70;;;;;;;;;;5001800;28;20057;-66
2023/08/07 05:59:31;;;;;;;7.03;2.33;;;;;;;;;;5004456;28;20053;-66
2023/08/07 06:01:57;;;;;;;7.68;2.13;;;;;;;;;;5000443;28;20052;-66
2023/08/07 06:04:23;;;;;;;9.77;2.20;;;;;;;;;;5006424;28;20049;-65
2023/08/07 06:06:49;;;;;;;8.23;2.17;;;;;;;;;;5007397;28;20041;-66
2023/08/07 06:09:15;;;;;;;9.77;2.30;;;;;;;;;;5007107;28;20053;-67
2023/08/07 06:11:42;;;;;;;7.28;1.88;;;;;;;;;;5009481;28;20145;-66
2023/08/07 06:14:08;;;;;;;9.32;2.00;;;;;;;;;;5005275;28;20144;-65
2023/08/07 06:16:34;;;;;;;8.73;2.05;;;;;;;;;;5002691;28;20061;-64
2023/08/07 06:19:00;;;;;;;9.88;2.63;;;;;;;;;;5005440;28;20060;-65
2023/08/07 06:21:28;;;;;;;6.13;2.20;;;;;;;;;;5006044;28;20762;-67
2023/08/07 06:23:54;;;;;;;15.25;2.38;;;;;;;;;;5009601;28;20049;-68
2023/08/07 06:26:20;;;;;;;9.77;2.08;;;;;;;;;;5006993;28;20473;-65
2023/08/07 06:28:47;;;;;;;13.35;2.60;;;;;;;;;;5004378;28;20151;-65
2023/08/07 06:31:15;;;;;;;14.00;2.13;;;;;;;;;;5003903;28;20115;-68
2023/08/07 06:33:41;;;;;;;9.77;2.47;;;;;;;;;;5006555;28;20057;-68
2023/08/07 06:36:08;;;;;;;7.85;2.40;;;;;;;;;;5007645;28;20054;-66
2023/08/07 06:38:34;;;;;;;14.73;2.20;;;;;;;;;;5006422;28;21377;-67
2023/08/07 06:41:01;;;;;;;8.18;2.15;;;;;;;;;;5009073;28;20056;-67
2023/08/07 06:43:27;;;;;;;7.28;2.17;;;;;;;;;;5005388;28;20146;-66
2023/08/07 06:45:56;;;;;;;11.02;2.20;;;;;;;;;;5006812;28;20105;-66
2023/08/07 06:48:22;;;;;;;13.45;2.70;;;;;;;;;;5004859;28;20053;-66
2023/08/07 06:50:49;;;;;;;13.63;2.30;;;;;;;;;;5006648;28;20060;-67
2023/08/07 06:53:15;;;;;;;9.70;2.30;;;;;;;;;;5005703;28;21333;-68
2023/08/07 06:55:42;;;;;;;7.78;2.40;;;;;;;;;;5007636;28;20751;-67
2023/08/07 06:58:09;;;;;;;10.90;2.17;;;;;;;;;;5003718;28;20065;-67
2023/08/07 07:00:35;;;;;;;8.15;2.35;;;;;;;;;;5005963;28;20053;-66
2023/08/07 07:03:02;;;;;;;5.15;2.33;;;;;;;;;;5006174;28;20065;-66
2023/08/07 07:05:30;;;;;;;10.93;2.13;;;;;;;;;;5005589;28;20057;-70
2023/08/07 07:07:57;;;;;;;11.25;2.22;;;;;;;;;;5005458;28;20512;-68
2023/08/07 07:10:23;;;;;;;14.38;2.65;;;;;;;;;;5013950;28;20091;-69
2023/08/07 07:12:49;;;;;;;8.90;2.50;;;;;;;;;;5005043;28;20546;-68
2023/08/07 07:15:15;;;;;;;10.38;2.53;;;;;;;;;;5002640;28;20065;-68
2023/08/07 07:17:41;;;;;;;8.05;2.25;;;;;;;;;;5003594;28;20053;-68
2023/08/07 07:20:11;;;;;;;10.15;2.35;;;;;;;;;;5002582;28;21896;-67
2023/08/07 07:22:37;;;;;;;10.65;2.67;;;;;;;;;;5004052;28;20053;-69
2023/08/07 07:25:04;;;;;;;10.68;2.35;;;;;;;;;;5003570;28;20080;-69
2023/08/07 07:27:30;;;;;;;16.00;2.72;;;;;;;;;;5000983;28;20041;-66
2023/08/07 07:29:56;;;;;;;8.45;2.20;;;;;;;;;;5001645;28;20061;-68
2023/08/07 07:32:22;;;;;;;14.23;2.58;;;;;;;;;;5002201;28;20053;-67
2023/08/07 07:34:48;;;;;;;12.65;2.70;;;;;;;;;;5000022;28;20418;-68
2023/08/07 07:37:16;;;;;;;10.32;2.38;;;;;;;;;;4999276;28;20042;-71
2023/08/07 07:39:43;;;;;;;14.45;2.67;;;;;;;;;;5001413;28;20061;-69
2023/08/07 07:42:08;;;;;;;7.78;2.45;;;;;;;;;;5000140;28;20080;-67
2023/08/07 07:44:38;;;;;;;8.20;2.20;;;;;;;;;;5003937;28;20057;-72
2023/08/07 07:47:05;;;;;;;11.65;2.65;;;;;;;;;;4999728;28;20112;-68
2023/08/07 07:49:32;;;;;;;7.40;2.53;;;;;;;;;;5001485;28;20419;-68
2023/08/07 07:51:58;;;;;;;11.70;2.85;;;;;;;;;;4999350;28;20046;-71
2023/08/07 07:54:24;;;;;;;11.15;2.80;;;;;;;;;;5003246;28;20695;-70
2023/08/07 07:56:50;;;;;;;9.18;2.30;;;;;;;;;;5000435;28;20675;-70
2023/08/07 07:59:16;;;;;;;11.27;2.55;;;;;;;;;;5001236;28;20182;-70
2023/08/07 08:01:42;;;;;;;17.23;2.67;;;;;;;;;;5001193;28;20050;-71
2023/08/07 08:04:10;;;;;;;10.40;2.90;;;;;;;;;;5001706;28;20061;-69
2023/08/07 08:06:35;;;;;;;12.88;2.60;;;;;;;;;;5001754;28;20139;-71
2023/08/07 08:09:04;;;;;;;10.13;2.50;;;;;;;;;;5002113;28;20049;-69
2023/08/07 08:11:31;;;;;;;13.73;2.80;;;;;;;;;;5003826;28;20057;-68
2023/08/07 08:13:57;;;;;;;12.60;2.63;;;;;;;;;;5001665;28;20061;-67
2023/08/07 08:16:22;;;;;;;12.45;3.00;;;;;;;;;;5000229;28;20060;-72
2023/08/07 08:18:48;;;;;;;12.40;2.53;;;;;;;;;;4996788;28;20524;-67
2023/08/07 08:21:14;;;;;;;15.00;3.25;;;;;;;;;;5001939;28;20037;-65
2023/08/07 08:23:40;;;;;;;17.77;2.92;;;;;;;;;;5000176;28;20689;-66
2023/08/07 08:26:06;;;;;;;9.02;2.58;;;;;;;;;;4995195;28;20065;-66
2023/08/07 08:28:32;;;;;;;11.43;2.60;;;;;;;;;;4999395;28;20515;-67
2023/08/07 08:30:58;;;;;;;11.63;2.55;;;;;;;;;;5003564;28;20139;-67
2023/08/07 08:33:24;;;;;;;14.45;3.03;;;;;;;;;;5003706;28;20596;-68
2023/08/07 08:35:50;;;;;;;14.60;3.22;;;;;;;;;;5001389;28;20535;-70
2023/08/07 08:38:56;;;;;;;6.80;2.50;;;;;;;;;;5000714;28;20060;-68
2023/08/07 08:42:36;;;;;;;11.20;2.60;;;;;;;;;;4998990;28;20435;-67
2023/08/07 08:46:17;;;;;;;12.30;2.85;;;;;;;;;;5000627;28;20038;-69
2023/08/07 08:49:57;;;;;;;11.05;2.30;;;;;;;;;;5000318;28;20822;-72
2023/08/07 08:53:37;;;;;;;13.27;2.42;;;;;;;;;;4998190;28;20061;-70
2023/08/07 08:57:18;;;;;;;14.23;2.97;;;;;;;;;;5000085;28;20042;-65
2023/08/07 09:00:58;;;;;;;13.30;2.90;;;;;;;;;;5002258;28;20053;-68
2023/08/07 09:04:39;;;;;;;8.55;2.85;;;;;;;;;;5002888;28;20057;-70
2023/08/07 09:08:19;;;;;;;13.75;2.60;;;;;;;;;;4999641;28;20050;-69
2023/08/07 09:12:00;;;;;;;11.82;2.70;;;;;;;;;;5004651;28;20521;-66
2023/08/07 09:15:41;;;;;;;14.75;3.33;;;;;;;;;;5001829;28;20124;-69
2023/08/07 09:19:21;;;;;;;12.20;2.47;;;;;;;;;;4999043;28;20115;-68
2023/08/07 09:23:01;;;;;;;13.70;3.08;;;;;;;;;;5001054;28;20453;-72
2023/08/07 09:26:43;;;;;;;15.20;2.70;;;;;;;;;;5003036;28;20053;-68
2023/08/07 09:30:28;;;;;;;11.57;2.47;;;;;;;;;;5002743;28;21696;-70
2023/08/07 09:34:08;;;;;;;9.73;2.40;;;;;;;;;;4998525;28;20064;-71
2023/08/07 09:37:49;;;;;;;8.63;2.25;;;;;;;;;;4999526;28;20053;-69
2023/08/07 09:41:29;;;;;;;11.73;2.78;;;;;;;;;;5002324;28;20168;-67
2023/08/07 09:45:15;;;;;;;10.18;2.33;;;;;;;;;;4999625;28;20049;-71
2023/08/07 09:48:59;;;;;;;10.10;2.75;;;;;;;;;;4999230;28;20180;-78
2023/08/07 09:52:39;;;;;;;12.45;2.30;;;;;;;;;;5004870;28;20137;-74
2023/08/07 09:56:19;;;;;;;9.02;2.13;;;;;;;;;;4999871;28;20123;-72
2023/08/07 09:59:59;;;;;;;12.07;2.60;;;;;;;;;;4997608;28;20099;-68
2023/08/07 10:03:40;;;;;;;9.07;2.35;;;;;;;;;;4999666;28;20528;-70
2023/08/07 10:07:20;;;;;;;10.88;2.47;;;;;;;;;;4998650;28;20051;-70
2023/08/07 10:11:00;;;;;;;10.20;2.42;;;;;;;;;;5008077;28;20385;-69
2023/08/07 10:14:41;;;;;;;12.20;2.42;;;;;;;;;;5000616;28;20045;-68
2023/08/07 10:18:21;;;;;;;20.77;2.83;;;;;;;;;;4998845;28;20080;-69
2023/08/07 10:22:02;;;;;;;12.27;2.42;;;;;;;;;;5000186;28;20053;-70
2023/08/07 10:25:42;;;;;;;14.13;2.58;;;;;;;;;;4997516;28;20049;-67
2023/08/07 10:29:23;;;;;;;10.02;2.30;;;;;;;;;;4997685;28;20115;-70
2023/08/07 10:33:03;;;;;;;7.90;2.30;;;;;;;;;;4998870;28;20057;-70
2023/08/07 10:36:11;;;;;;;13.25;2.67;;;;;;;;;;4996077;28;20164;-67
2023/08/07 10:38:37;;;;;;;13.97;2.30;;;;;;;;;;5000310;28;20435;-69
2023/08/07 10:41:29;;;;;;;12.45;2.65;;;;;;;;;;5001357;28;20294;-68
2023/08/07 10:45:09;;;;;;;13.10;2.58;;;;;;;;;;5000158;28;20054;-68
2023/08/07 10:48:32;;;;;;;7.85;2.42;;;;;;;;;;4996731;28;20045;-68
2023/08/07 10:52:14;;;;;;;10.18;2.60;;;;;;;;;;5003399;28;20053;-70
2023/08/07 10:55:57;;;;;;;9.45;2.80;;;;;;;;;;5006559;28;20095;-69
2023/08/07 10:59:34;;;;;;;8.98;2.05;;;;;;;;;;5002252;28;20124;-68
2023/08/07 11:03:14;;;;;;;14.07;2.58;;;;;;;;;;4999101;28;20049;-69
2023/08/07 11:06:54;;;;;;;15.38;2.58;;;;;;;;;;4999012;28;20045;-66
2023/08/07 11:10:35;;;;;;;7.75;2.45;;;;;;;;;;5004973;28;20444;-68
2023/08/07 11:14:15;;;;;;;9.70;2.40;;;;;;;;;;4999556;28;20045;-67
2023/08/07 11:17:56;;;;;;;18.23;3.15;;;;;;;;;;4999147;28;20600;-68
2023/08/07 11:21:36;;;;;;;9.20;2.45;;;;;;;;;;5000641;28;20096;-65
2023/08/07 11:25:16;;;;;;;13.75;2.30;;;;;;;;;;5001348;28;20053;-68
2023/08/07 11:29:00;;;;;;;12.70;2.75;;;;;;;;;;4997627;28;20076;-66
2023/08/07 11:32:42;;;;;;;13.18;2.70;;;;;;;;;;4995457;28;20734;-67
2023/08/07 11:36:22;;;;;;;15.10;2.58;;;;;;;;;;4999009;28;20065;-67
2023/08/07 11:40:02;;;;;;;9.52;2.67;;;;;;;;;;5003944;28;20470;-71
2023/08/07 11:43:43;;;;;;;9.07;2.15;;;;;;;;;;5002024;28;20088;-66
2023/08/07 11:47:23;;;;;;;10.15;2.65;;;;;;;;;;5002398;28;20068;-66
2023/08/07 11:51:03;;;;;;;15.93;2.65;;;;;;;;;;5004575;28;20060;-66
2023/08/07 11:54:45;;;;;;;9.20;2.30;;;;;;;;;;5007481;28;20521;-65
2023/08/07 11:58:25;;;;;;;14.60;2.58;;;;;;;;;;5003417;28;20049;-66
2023/08/07 12:02:06;;;;;;;8.25;2.47;;;;;;;;;;4998038;28;20068;-66
2023/08/07 12:05:46;;;;;;;8.90;2.88;;;;;;;;;;5004081;28;20053;-67
2023/08/07 12:09:26;;;;;;;8.52;2.50;;;;;;;;;;5004480;28;20479;-67
2023/08/07 12:13:07;;;;;;;11.93;2.45;;;;;;;;;;5005683;28;20140;-66
2023/08/07 12:16:47;;;;;;;9.43;2.55;;;;;;;;;;5004288;28;20404;-66
2023/08/07 12:20:28;;;;;;;7.38;2.60;;;;;;;;;;5002054;28;20085;-66
2023/08/07 12:24:08;;;;;;;9.45;2.30;;;;;;;;;;5003840;28;20526;-67
2023/08/07 12:27:49;;;;;;;18.05;3.38;;;;;;;;;;4997509;28;20099;-66
2023/08/07 12:31:29;;;;;;;18.20;2.80;;;;;;;;;;4999718;28;20072;-66
2023/08/07 12:35:09;;;;;;;10.38;2.35;;;;;;;;;;5006630;28;20499;-65
2023/08/07 12:38:50;;;;;;;8.23;2.40;;;;;;;;;;4996504;28;20103;-68
2023/08/07 12:42:30;;;;;;;9.13;2.30;;;;;;;;;;4999950;28;20511;-68
2023/08/07 12:46:10;;;;;;;8.25;2.45;;;;;;;;;;5000107;28;20172;-67
2023/08/07 12:49:51;;;;;;;15.77;2.60;;;;;;;;;;5004855;28;20420;-69
2023/08/07 12:53:31;;;;;;;10.18;2.20;;;;;;;;;;5002002;28;20049;-66
2023/08/07 12:57:11;;;;;;;13.23;2.80;;;;;;;;;;5002321;28;20513;-66
2023/08/07 13:00:52;;;;;;;9.02;2.45;;;;;;;;;;4998150;28;20281;-66
2023/08/07 13:04:34;;;;;;;13.75;2.63;;;;;;;;;;5001153;28;20419;-67
2023/08/07 13:08:15;;;;;;;11.48;2.92;;;;;;;;;;4998153;28;20511;-66
2023/08/07 13:11:55;;;;;;;17.38;2.60;;;;;;;;;;4999239;28;20135;-66
2023/08/07 13:15:35;;;;;;;10.25;2.40;;;;;;;;;;4999650;28;20049;-68
2023/08/07 13:19:16;;;;;;;13.23;3.10;;;;;;;;;;4997691;28;20052;-66
2023/08/07 13:22:59;;;;;;;10.57;2.75;;;;;;;;;;5000109;28;20599;-67
2023/08/07 13:26:44;;;;;;;14.00;3.05;;;;;;;;;;5000942;28;20064;-67
2023/08/07 13:30:21;;;;;;;11.20;2.65;;;;;;;;;;4999390;28;20187;-69
2023/08/07 13:34:07;;;;;;;18.65;2.80;;;;;;;;;;4998252;28;20053;-71
2023/08/07 13:37:42;;;;;;;11.88;2.47;;;;;;;;;;4999272;28;21005;-67
2023/08/07 13:41:22;;;;;;;12.82;2.70;;;;;;;;;;5001411;28;20057;-67
2023/08/07 13:45:03;;;;;;;20.50;2.95;;;;;;;;;;5001099;28;20091;-65
2023/08/07 13:48:43;;;;;;;13.35;2.70;;;;;;;;;;5000439;28;20041;-67
2023/08/07 13:52:23;;;;;;;9.75;2.53;;;;;;;;;;4998842;28;20053;-66
2023/08/07 13:56:03;;;;;;;14.70;2.63;;;;;;;;;;5001194;28;20077;-65
2023/08/07 13:59:44;;;;;;;15.45;3.15;;;;;;;;;;5001069;28;20495;-66
2023/08/07 14:03:24;;;;;;;13.95;3.08;;;;;;;;;;4997179;28;20046;-65
2023/08/07 14:07:05;;;;;;;16.77;3.10;;;;;;;;;;5002073;28;20176;-67
2023/08/07 14:10:45;;;;;;;21.13;3.08;;;;;;;;;;5000006;28;20050;-66
2023/08/07 14:14:25;;;;;;;13.73;2.53;;;;;;;;;;4999709;28;20394;-66
2023/08/07 14:18:06;;;;;;;15.15;3.30;;;;;;;;;;4997649;28;20049;-67
2023/08/07 14:21:46;;;;;;;19.95;4.55;;;;;;;;;;4999797;28;20559;-66
2023/08/07 14:25:27;;;;;;;23.00;5.10;;;;;;;;;;5005371;28;20060;-65
2023/08/07 14:29:07;;;;;;;15.88;3.80;;;;;;;;;;5001515;28;20418;-68
2023/08/07 14:32:47;;;;;;;16.77;4.07;;;;;;;;;;5004032;28;20173;-65
2023/08/07 14:36:28;;;;;;;17.27;4.28;;;;;;;;;;5002786;28;20139;-67
2023/08/07 14:40:08;;;;;;;13.63;2.55;;;;;;;;;;5003819;28;20053;-67
2023/08/07 14:43:49;;;;;;;15.77;3.72;;;;;;;;;;5003031;28;20407;-66
2023/08/07 14:47:30;;;;;;;14.65;2.65;;;;;;;;;;5002021;28;20049;-68
2023/08/07 14:51:10;;;;;;;10.00;2.58;;;;;;;;;;5004927;28;20104;-68
2023/08/07 14:54:52;;;;;;;8.60;2.40;;;;;;;;;;5005667;28;20045;-68
2023/08/07 14:58:32;;;;;;;12.95;2.72;;;;;;;;;;5005265;28;20568;-65
2023/08/07 15:02:12;;;;;;;11.23;2.78;;;;;;;;;;5004849;28;20509;-67
2023/08/07 15:05:53;;;;;;;12.63;2.55;;;;;;;;;;5012038;28;20041;-66
2023/08/07 15:09:33;;;;;;;14.05;2.90;;;;;;;;;;5006087;28;20064;-67
2023/08/07 15:13:14;;;;;;;15.45;3.10;;;;;;;;;;5000572;28;20080;-69
2023/08/07 15:16:55;;;;;;;12.88;2.63;;;;;;;;;;5003814;28;20096;-69
2023/08/07 15:20:35;;;;;;;14.55;3.30;;;;;;;;;;5000824;28;20041;-70
2023/08/07 15:24:15;;;;;;;14.30;2.67;;;;;;;;;;5003293;28;20045;-67
2023/08/07 15:27:59;;;;;;;15.63;2.85;;;;;;;;;;5003909;28;20057;-69
2023/08/07 15:31:37;;;;;;;13.50;2.65;;;;;;;;;;5007242;28;20056;-68
2023/08/07 15:35:17;;;;;;;18.17;3.20;;;;;;;;;;5007393;28;20132;-70
2023/08/07 15:38:57;;;;;;;13.43;3.33;;;;;;;;;;5002260;28;20186;-73
2023/08/07 15:42:38;;;;;;;16.90;3.13;;;;;;;;;;5001390;28;20049;-71
2023/08/07 15:46:18;;;;;;;11.07;2.80;;;;;;;;;;5003770;28;20045;-66
2023/08/07 15:49:58;;;;;;;12.82;2.90;;;;;;;;;;5002476;28;20054;-68
2023/08/07 15:53:39;;;;;;;10.90;2.58;;;;;;;;;;5003631;28;20646;-69
2023/08/07 15:57:19;;;;;;;20.08;3.33;;;;;;;;;;5002854;28;20115;-68
2023/08/07 16:00:59;;;;;;;11.25;2.55;;;;;;;;;;5006549;28;20521;-68
2023/08/07 16:04:40;;;;;;;12.80;2.75;;;;;;;;;;5005481;28;20128;-68
2023/08/07 16:08:20;;;;;;;15.73;3.05;;;;;;;;;;5001504;28;21098;-68
2023/08/07 16:12:01;;;;;;;14.70;2.95;;;;;;;;;;5001566;28;20653;-68
2023/08/07 16:15:42;;;;;;;14.25;3.40;;;;;;;;;;5004649;28;20056;-69
2023/08/07 16:19:22;;;;;;;11.32;2.80;;;;;;;;;;5003041;28;20053;-70
2023/08/07 16:23:02;;;;;;;15.98;3.17;;;;;;;;;;5000167;28;21203;-67
2023/08/07 16:26:42;;;;;;;18.08;3.15;;;;;;;;;;4998613;28;20072;-66
2023/08/07 16:30:23;;;;;;;16.17;3.25;;;;;;;;;;5003192;28;20451;-68
2023/08/07 16:34:03;;;;;;;12.27;2.80;;;;;;;;;;5003528;28;22030;-67
2023/08/07 16:37:47;;;;;;;12.50;3.03;;;;;;;;;;5002671;28;20053;-69
2023/08/07 16:41:27;;;;;;;15.40;3.42;;;;;;;;;;5004783;28;20053;-73
2023/08/07 16:45:07;;;;;;;15.52;3.20;;;;;;;;;;5002347;28;20483;-69
2023/08/07 16:48:49;;;;;;;17.67;3.28;;;;;;;;;;5000109;28;20064;-68
2023/08/07 16:52:29;;;;;;;10.20;2.70;;;;;;;;;;5007922;28;20041;-70
2023/08/07 16:56:09;;;;;;;14.68;2.63;;;;;;;;;;5004331;28;20059;-67
2023/08/07 16:59:50;;;;;;;10.25;3.20;;;;;;;;;;5006418;28;20041;-69
2023/08/07 17:03:31;;;;;;;13.80;2.80;;;;;;;;;;5002318;28;20242;-69
2023/08/07 17:07:11;;;;;;;13.45;3.10;;;;;;;;;;5002060;28;20048;-70
2023/08/07 17:10:52;;;;;;;11.95;2.80;;;;;;;;;;5002918;28;20057;-68
2023/08/07 17:14:32;;;;;;;17.70;3.38;;;;;;;;;;5002341;28;20590;-67
2023/08/07 17:18:12;;;;;;;13.80;3.17;;;;;;;;;;5001028;28;20045;-66
2023/08/07 17:21:53;;;;;;;11.93;2.88;;;;;;;;;;5003882;28;20061;-68
2023/08/07 17:25:33;;;;;;;8.82;2.60;;;;;;;;;;5000108;28;20045;-70
2023/08/07 17:29:13;;;;;;;9.20;2.97;;;;;;;;;;4998806;28;20065;-69